createdAt,value
2018-10-21T00:00:53.848Z,13.00
2018-10-21T00:01:54.584Z,13.00
2018-10-21T00:02:55.356Z,17.00
2018-10-21T00:03:56.022Z,15.00
2018-10-21T00:04:56.742Z,14.00
2018-10-21T00:05:57.470Z,15.00
2018-10-21T00:06:58.180Z,15.00
2018-10-21T00:07:58.901Z,14.00
2018-10-21T00:08:59.621Z,14.00
2018-10-21T00:10:00.337Z,14.00
2018-10-21T00:11:01.057Z,14.00
2018-10-21T00:12:01.785Z,14.00
2018-10-21T00:13:02.517Z,14.00
2018-10-21T00:14:03.236Z,16.00
2018-10-21T00:15:04.062Z,15.00
2018-10-21T00:16:04.677Z,16.00
2018-10-21T00:17:05.419Z,16.00
2018-10-21T00:18:06.140Z,16.00
2018-10-21T00:19:06.855Z,14.00
2018-10-21T00:20:07.576Z,14.00
2018-10-21T00:21:08.320Z,16.00
2018-10-21T00:22:09.012Z,14.00
2018-10-21T00:23:09.729Z,13.00
2018-10-21T00:24:10.471Z,14.00
2018-10-21T00:25:11.190Z,16.00
2018-10-21T00:26:11.931Z,14.00
2018-10-21T00:27:12.717Z,15.00
2018-10-21T00:28:13.367Z,14.00
2018-10-21T00:29:14.088Z,15.00
2018-10-21T00:30:14.806Z,18.00
2018-10-21T00:31:15.547Z,14.00
2018-10-21T00:32:16.264Z,15.00
2018-10-21T00:33:17.034Z,17.00
2018-10-21T00:34:17.704Z,13.00
2018-10-21T00:35:18.424Z,14.00
2018-10-21T00:36:19.141Z,15.00
2018-10-21T00:37:19.864Z,15.00
2018-10-21T00:38:20.608Z,14.00
2018-10-21T00:39:21.327Z,15.00
2018-10-21T00:40:22.070Z,16.00
2018-10-21T00:41:22.788Z,17.00
2018-10-21T00:42:23.507Z,16.00
2018-10-21T00:43:24.232Z,17.00
2018-10-21T00:44:24.945Z,17.00
2018-10-21T00:45:25.670Z,15.00
2018-10-21T00:46:26.407Z,14.00
2018-10-21T00:47:27.152Z,16.00
2018-10-21T00:48:27.871Z,17.00
2018-10-21T00:49:28.588Z,16.00
2018-10-21T00:50:29.307Z,15.00
2018-10-21T00:51:30.026Z,18.00
2018-10-21T00:52:30.743Z,15.00
2018-10-21T00:53:31.464Z,14.00
2018-10-21T00:54:32.181Z,12.00
2018-10-21T00:55:32.899Z,14.00
2018-10-21T00:56:33.620Z,13.00
2018-10-21T00:57:34.357Z,15.00
2018-10-21T00:58:35.098Z,12.00
2018-10-21T00:59:35.824Z,15.00
2018-10-21T01:00:36.534Z,15.00
2018-10-21T01:01:37.250Z,15.00
2018-10-21T01:02:37.991Z,15.00
2018-10-21T01:03:38.732Z,14.00
2018-10-21T01:04:39.451Z,15.00
2018-10-21T01:05:40.167Z,15.00
2018-10-21T01:06:40.886Z,14.00
2018-10-21T01:07:41.606Z,15.00
2018-10-21T01:08:42.326Z,16.00
2018-10-21T01:09:43.044Z,15.00
2018-10-21T01:10:43.762Z,15.00
2018-10-21T01:11:44.489Z,15.00
2018-10-21T01:12:45.202Z,15.00
2018-10-21T01:13:45.918Z,15.00
2018-10-21T01:14:46.637Z,14.00
2018-10-21T01:15:47.355Z,15.00
2018-10-21T01:16:48.075Z,14.00
2018-10-21T01:17:48.796Z,14.00
2018-10-21T01:18:49.512Z,15.00
2018-10-21T01:19:50.238Z,15.00
2018-10-21T01:20:50.972Z,16.00
2018-10-21T01:21:51.693Z,17.00
2018-10-21T01:22:52.411Z,13.00
2018-10-21T01:23:53.131Z,15.00
2018-10-21T01:24:53.873Z,17.00
2018-10-21T01:25:54.593Z,14.00
2018-10-21T01:26:55.323Z,16.00
2018-10-21T01:27:56.054Z,17.00
2018-10-21T01:28:56.780Z,16.00
2018-10-21T01:29:57.501Z,15.00
2018-10-21T01:30:58.211Z,16.00
2018-10-21T01:31:58.928Z,14.00
2018-10-21T01:32:59.653Z,16.00
2018-10-21T01:34:00.372Z,15.00
2018-10-21T01:35:01.088Z,13.00
2018-10-21T01:36:01.806Z,15.00
2018-10-21T01:37:02.597Z,16.00
2018-10-21T01:38:03.278Z,13.00
2018-10-21T01:39:04.064Z,15.00
2018-10-21T01:40:04.725Z,15.00
2018-10-21T01:41:05.463Z,16.00
2018-10-21T01:42:06.181Z,17.00
2018-10-21T01:43:06.949Z,16.00
2018-10-21T01:44:07.623Z,14.00
2018-10-21T01:45:08.457Z,18.00
2018-10-21T01:46:09.097Z,17.00
2018-10-21T01:47:09.838Z,15.00
2018-10-21T01:48:10.558Z,17.00
2018-10-21T01:49:11.276Z,17.00
2018-10-21T01:50:11.996Z,14.00
2018-10-21T01:51:12.750Z,15.00
2018-10-21T01:52:13.431Z,16.00
2018-10-21T01:53:14.149Z,14.00
2018-10-21T01:54:14.865Z,15.00
2018-10-21T01:55:15.591Z,18.00
2018-10-21T01:56:16.300Z,14.00
2018-10-21T01:57:17.126Z,15.00
2018-10-21T01:58:17.737Z,15.00
2018-10-21T01:59:18.456Z,14.00
2018-10-21T02:00:19.174Z,15.00
2018-10-21T02:01:19.914Z,15.00
2018-10-21T02:02:20.633Z,15.00
2018-10-21T02:03:21.355Z,17.00
2018-10-21T02:04:22.093Z,17.00
2018-10-21T02:05:22.819Z,15.00
2018-10-21T02:06:23.554Z,15.00
2018-10-21T02:07:24.276Z,15.00
2018-10-21T02:08:24.994Z,17.00
2018-10-21T02:09:25.712Z,17.00
2018-10-21T02:10:26.435Z,16.00
2018-10-21T02:11:27.153Z,15.00
2018-10-21T02:12:27.871Z,14.00
2018-10-21T02:13:28.588Z,16.00
2018-10-21T02:14:29.331Z,16.00
2018-10-21T02:15:30.071Z,15.00
2018-10-21T02:16:30.819Z,15.00
2018-10-21T02:17:31.543Z,16.00
2018-10-21T02:18:32.307Z,17.00
2018-10-21T02:19:32.972Z,16.00
2018-10-21T02:20:33.697Z,18.00
2018-10-21T02:21:34.442Z,18.00
2018-10-21T02:22:35.153Z,17.00
2018-10-21T02:23:35.869Z,17.00
2018-10-21T02:24:36.589Z,14.00
2018-10-21T02:25:37.308Z,17.00
2018-10-21T02:26:38.031Z,15.00
2018-10-21T02:27:38.762Z,16.00
2018-10-21T02:28:39.480Z,18.00
2018-10-21T02:29:40.202Z,18.00
2018-10-21T02:30:40.917Z,16.00
2018-10-21T02:31:41.639Z,16.00
2018-10-21T02:32:42.380Z,15.00
2018-10-21T02:33:43.142Z,15.00
2018-10-21T02:34:43.835Z,15.00
2018-10-21T02:35:44.554Z,17.00
2018-10-21T02:36:45.281Z,15.00
2018-10-21T02:37:45.992Z,15.00
2018-10-21T02:38:46.740Z,16.00
2018-10-21T02:39:47.453Z,17.00
2018-10-21T02:40:48.194Z,17.00
2018-10-21T02:41:48.913Z,20.00
2018-10-21T02:42:49.631Z,17.00
2018-10-21T02:43:50.358Z,17.00
2018-10-21T02:44:51.068Z,18.00
2018-10-21T02:45:51.790Z,18.00
2018-10-21T02:46:52.507Z,18.00
2018-10-21T02:47:53.227Z,17.00
2018-10-21T02:48:53.944Z,15.00
2018-10-21T02:49:54.663Z,17.00
2018-10-21T02:50:55.403Z,16.00
2018-10-21T02:51:56.124Z,15.00
2018-10-21T02:52:56.867Z,17.00
2018-10-21T02:53:57.589Z,19.00
2018-10-21T02:54:58.303Z,18.00
2018-10-21T02:55:59.046Z,16.00
2018-10-21T02:56:59.784Z,18.00
2018-10-21T02:58:00.481Z,17.00
2018-10-21T02:59:01.204Z,17.00
2018-10-21T03:00:01.943Z,19.00
2018-10-21T03:01:02.684Z,15.00
2018-10-21T03:02:03.404Z,18.00
2018-10-21T03:03:04.196Z,19.00
2018-10-21T03:04:04.839Z,18.00
2018-10-21T03:05:05.558Z,17.00
2018-10-21T03:06:06.278Z,17.00
2018-10-21T03:07:06.995Z,15.00
2018-10-21T03:08:07.738Z,17.00
2018-10-21T03:09:08.519Z,17.00
2018-10-21T03:10:09.178Z,18.00
2018-10-21T03:11:09.916Z,19.00
2018-10-21T03:12:10.636Z,21.00
2018-10-21T03:13:11.361Z,16.00
2018-10-21T03:14:12.096Z,17.00
2018-10-21T03:15:12.862Z,20.00
2018-10-21T03:16:13.562Z,16.00
2018-10-21T03:17:14.300Z,16.00
2018-10-21T03:18:15.073Z,17.00
2018-10-21T03:19:15.736Z,18.00
2018-10-21T03:20:16.458Z,17.00
2018-10-21T03:21:17.273Z,16.00
2018-10-21T03:22:17.916Z,17.00
2018-10-21T03:23:18.637Z,18.00
2018-10-21T03:24:19.355Z,16.00
2018-10-21T03:25:20.102Z,19.00
2018-10-21T03:26:20.840Z,18.00
2018-10-21T03:27:21.558Z,18.00
2018-10-21T03:28:22.277Z,18.00
2018-10-21T03:29:23.006Z,17.00
2018-10-21T03:30:23.740Z,19.00
2018-10-21T03:31:24.474Z,16.00
2018-10-21T03:32:25.194Z,19.00
2018-10-21T03:33:26.067Z,20.00
2018-10-21T03:34:26.631Z,20.00
2018-10-21T03:35:27.371Z,20.00
2018-10-21T03:36:28.091Z,19.00
2018-10-21T03:37:28.831Z,19.00
2018-10-21T03:38:29.551Z,18.00
2018-10-21T03:39:30.268Z,17.00
2018-10-21T03:40:30.986Z,19.00
2018-10-21T03:41:31.705Z,19.00
2018-10-21T03:42:32.425Z,20.00
2018-10-21T03:43:33.161Z,19.00
2018-10-21T03:44:33.888Z,21.00
2018-10-21T03:45:34.604Z,22.00
2018-10-21T03:46:35.322Z,22.00
2018-10-21T03:47:36.042Z,23.00
2018-10-21T03:48:36.760Z,22.00
2018-10-21T03:49:37.478Z,20.00
2018-10-21T03:50:38.198Z,19.00
2018-10-21T03:51:38.920Z,19.00
2018-10-21T03:52:39.660Z,19.00
2018-10-21T03:53:40.378Z,18.00
2018-10-21T03:54:41.098Z,20.00
2018-10-21T03:55:41.820Z,19.00
2018-10-21T03:56:42.557Z,20.00
2018-10-21T03:57:43.279Z,18.00
2018-10-21T03:58:43.996Z,21.00
2018-10-21T03:59:44.724Z,18.00
2018-10-21T04:00:45.434Z,19.00
2018-10-21T04:01:46.152Z,22.00
2018-10-21T04:02:46.870Z,19.00
2018-10-21T04:03:47.611Z,23.00
2018-10-21T04:04:48.361Z,21.00
2018-10-21T04:05:49.078Z,22.00
2018-10-21T04:06:49.815Z,22.00
2018-10-21T04:07:50.532Z,20.00
2018-10-21T04:08:51.251Z,22.00
2018-10-21T04:09:51.969Z,22.00
2018-10-21T04:10:52.712Z,19.00
2018-10-21T04:11:53.429Z,21.00
2018-10-21T04:12:54.149Z,18.00
2018-10-21T04:13:54.867Z,22.00
2018-10-21T04:14:55.584Z,20.00
2018-10-21T04:15:56.305Z,21.00
2018-10-21T04:16:57.021Z,19.00
2018-10-21T04:17:57.740Z,22.00
2018-10-21T04:18:58.459Z,23.00
2018-10-21T04:19:59.178Z,19.00
2018-10-21T04:20:59.896Z,19.00
2018-10-21T04:22:00.665Z,22.00
2018-10-21T04:23:01.335Z,22.00
2018-10-21T04:24:02.077Z,19.00
2018-10-21T04:25:02.794Z,22.00
2018-10-21T04:26:03.513Z,22.00
2018-10-21T04:27:04.254Z,18.00
2018-10-21T04:28:04.987Z,22.00
2018-10-21T04:29:05.692Z,19.00
2018-10-21T04:30:06.411Z,19.00
2018-10-21T04:31:07.129Z,20.00
2018-10-21T04:32:07.848Z,22.00
2018-10-21T04:33:08.592Z,19.00
2018-10-21T04:34:09.400Z,21.00
2018-10-21T04:35:10.043Z,19.00
2018-10-21T04:36:10.761Z,20.00
2018-10-21T04:37:11.484Z,21.00
2018-10-21T04:38:12.198Z,21.00
2018-10-21T04:39:12.920Z,23.00
2018-10-21T04:40:13.690Z,23.00
2018-10-21T04:41:14.396Z,18.00
2018-10-21T04:42:15.118Z,22.00
2018-10-21T04:43:15.843Z,19.00
2018-10-21T04:44:16.552Z,19.00
2018-10-21T04:45:17.271Z,21.00
2018-10-21T04:46:17.988Z,20.00
2018-10-21T04:47:18.716Z,21.00
2018-10-21T04:48:19.453Z,20.00
2018-10-21T04:49:20.192Z,20.00
2018-10-21T04:50:20.912Z,20.00
2018-10-21T04:51:21.630Z,20.00
2018-10-21T04:52:22.348Z,22.00
2018-10-21T04:53:23.066Z,19.00
2018-10-21T04:54:23.794Z,23.00
2018-10-21T04:55:24.501Z,18.00
2018-10-21T04:56:25.221Z,18.00
2018-10-21T04:57:25.943Z,19.00
2018-10-21T04:58:26.658Z,22.00
2018-10-21T04:59:27.376Z,20.00
2018-10-21T05:00:28.169Z,18.00
2018-10-21T05:01:28.835Z,19.00
2018-10-21T05:02:29.575Z,19.00
2018-10-21T05:03:30.317Z,22.00
2018-10-21T05:04:31.040Z,20.00
2018-10-21T05:05:31.754Z,17.00
2018-10-21T05:06:32.500Z,22.00
2018-10-21T05:07:33.281Z,17.00
2018-10-21T05:08:33.948Z,20.00
2018-10-21T05:09:34.666Z,20.00
2018-10-21T05:10:35.395Z,18.00
2018-10-21T05:11:36.123Z,19.00
2018-10-21T05:12:36.864Z,20.00
2018-10-21T05:13:37.586Z,19.00
2018-10-21T05:14:38.324Z,18.00
2018-10-21T05:15:39.042Z,20.00
2018-10-21T05:16:39.847Z,20.00
2018-10-21T05:17:40.480Z,21.00
2018-10-21T05:18:41.200Z,21.00
2018-10-21T05:19:41.916Z,21.00
2018-10-21T05:20:42.638Z,20.00
2018-10-21T05:21:43.360Z,20.00
2018-10-21T05:22:44.074Z,18.00
2018-10-21T05:23:44.836Z,21.00
2018-10-21T05:24:45.559Z,20.00
2018-10-21T05:25:46.276Z,20.00
2018-10-21T05:26:46.994Z,18.00
2018-10-21T05:27:47.719Z,20.00
2018-10-21T05:28:48.459Z,18.00
2018-10-21T05:29:49.176Z,20.00
2018-10-21T05:30:49.918Z,20.00
2018-10-21T05:31:50.638Z,19.00
2018-10-21T05:32:51.357Z,21.00
2018-10-21T05:33:52.075Z,21.00
2018-10-21T05:34:52.795Z,20.00
2018-10-21T05:35:53.539Z,20.00
2018-10-21T05:36:54.256Z,22.00
2018-10-21T05:37:54.991Z,20.00
2018-10-21T05:38:55.712Z,22.00
2018-10-21T05:39:56.435Z,19.00
2018-10-21T05:40:57.149Z,19.00
2018-10-21T05:41:57.870Z,19.00
2018-10-21T05:42:58.589Z,21.00
2018-10-21T05:43:59.308Z,20.00
2018-10-21T05:45:00.030Z,19.00
2018-10-21T05:46:00.782Z,22.00
2018-10-21T05:47:01.475Z,21.00
2018-10-21T05:48:02.187Z,20.00
2018-10-21T05:49:02.910Z,20.00
2018-10-21T05:50:03.658Z,19.00
2018-10-21T05:51:04.393Z,20.00
2018-10-21T05:52:05.162Z,21.00
2018-10-21T05:53:05.838Z,20.00
2018-10-21T05:54:06.578Z,18.00
2018-10-21T05:55:07.292Z,20.00
2018-10-21T05:56:08.037Z,23.00
2018-10-21T05:57:08.757Z,22.00
2018-10-21T05:58:09.527Z,22.00
2018-10-21T05:59:10.200Z,23.00
2018-10-21T06:00:10.917Z,17.00
2018-10-21T06:01:11.642Z,23.00
2018-10-21T06:02:12.381Z,21.00
2018-10-21T06:03:13.115Z,21.00
2018-10-21T06:04:13.874Z,21.00
2018-10-21T06:05:14.542Z,23.00
2018-10-21T06:06:15.264Z,22.00
2018-10-21T06:07:15.984Z,22.00
2018-10-21T06:08:16.705Z,20.00
2018-10-21T06:09:17.426Z,24.00
2018-10-21T06:10:18.234Z,22.00
2018-10-21T06:11:18.872Z,24.00
2018-10-21T06:12:19.599Z,23.00
2018-10-21T06:13:20.320Z,22.00
2018-10-21T06:14:21.039Z,25.00
2018-10-21T06:15:21.763Z,22.00
2018-10-21T06:16:22.563Z,20.00
2018-10-21T06:17:23.229Z,22.00
2018-10-21T06:18:23.947Z,23.00
2018-10-21T06:19:24.672Z,22.00
2018-10-21T06:20:25.393Z,19.00
2018-10-21T06:21:26.115Z,24.00
2018-10-21T06:22:26.841Z,25.00
2018-10-21T06:23:27.590Z,24.00
2018-10-21T06:24:28.310Z,21.00
2018-10-21T06:25:29.030Z,22.00
2018-10-21T06:26:29.753Z,21.00
2018-10-21T06:27:30.522Z,23.00
2018-10-21T06:28:31.218Z,23.00
2018-10-21T06:29:31.939Z,25.00
2018-10-21T06:30:32.661Z,23.00
2018-10-21T06:31:33.405Z,24.00
2018-10-21T06:32:34.129Z,24.00
2018-10-21T06:33:34.929Z,26.00
2018-10-21T06:34:35.597Z,25.00
2018-10-21T06:35:36.321Z,27.00
2018-10-21T06:36:37.050Z,24.00
2018-10-21T06:37:37.768Z,25.00
2018-10-21T06:38:38.492Z,22.00
2018-10-21T06:39:39.218Z,25.00
2018-10-21T06:40:39.942Z,28.00
2018-10-21T06:41:40.664Z,24.00
2018-10-21T06:42:41.388Z,24.00
2018-10-21T06:43:42.113Z,24.00
2018-10-21T06:44:42.838Z,26.00
2018-10-21T06:45:43.628Z,26.00
2018-10-21T06:46:44.284Z,29.00
2018-10-21T06:47:45.010Z,25.00
2018-10-21T06:48:45.741Z,25.00
2018-10-21T06:49:46.456Z,27.00
2018-10-21T06:50:47.181Z,25.00
2018-10-21T06:51:47.919Z,27.00
2018-10-21T06:52:48.651Z,23.00
2018-10-21T06:53:49.373Z,25.00
2018-10-21T06:54:50.101Z,24.00
2018-10-21T06:55:50.850Z,24.00
2018-10-21T06:56:51.728Z,26.00
2018-10-21T06:57:52.361Z,25.00
2018-10-21T06:58:53.050Z,25.00
2018-10-21T06:59:53.775Z,26.00
2018-10-21T07:00:54.499Z,26.00
2018-10-21T07:01:55.249Z,25.00
2018-10-21T07:02:55.976Z,22.00
2018-10-21T07:03:56.767Z,21.00
2018-10-21T07:04:57.466Z,23.00
2018-10-21T07:05:58.162Z,22.00
2018-10-21T07:06:58.882Z,26.00
2018-10-21T07:07:59.607Z,21.00
2018-10-21T07:09:00.334Z,24.00
2018-10-21T07:10:01.128Z,20.00
2018-10-21T07:11:01.815Z,26.00
2018-10-21T07:12:02.540Z,24.00
2018-10-21T07:13:03.291Z,21.00
2018-10-21T07:14:04.020Z,24.00
2018-10-21T07:15:04.807Z,21.00
2018-10-21T07:16:05.545Z,20.00
2018-10-21T07:17:06.204Z,22.00
2018-10-21T07:18:06.933Z,22.00
2018-10-21T07:19:07.686Z,21.00
2018-10-21T07:20:08.415Z,21.00
2018-10-21T07:21:09.145Z,22.00
2018-10-21T07:22:09.949Z,23.00
2018-10-21T07:23:10.602Z,23.00
2018-10-21T07:24:11.354Z,23.00
2018-10-21T07:25:12.085Z,22.00
2018-10-21T07:26:12.836Z,24.00
2018-10-21T07:27:13.565Z,24.00
2018-10-21T07:28:14.393Z,24.00
2018-10-21T07:29:15.021Z,24.00
2018-10-21T07:30:15.756Z,22.00
2018-10-21T07:31:16.483Z,19.00
2018-10-21T07:32:17.219Z,21.00
2018-10-21T07:33:17.940Z,23.00
2018-10-21T07:34:18.727Z,22.00
2018-10-21T07:35:19.398Z,22.00
2018-10-21T07:36:20.142Z,21.00
2018-10-21T07:37:20.868Z,22.00
2018-10-21T07:38:21.599Z,23.00
2018-10-21T07:39:22.325Z,20.00
2018-10-21T07:40:23.066Z,22.00
2018-10-21T07:41:23.783Z,20.00
2018-10-21T07:42:24.535Z,20.00
2018-10-21T07:43:25.265Z,20.00
2018-10-21T07:44:25.996Z,21.00
2018-10-21T07:45:26.722Z,19.00
2018-10-21T07:46:27.449Z,19.00
2018-10-21T07:47:28.179Z,20.00
2018-10-21T07:48:28.912Z,20.00
2018-10-21T07:49:29.663Z,20.00
2018-10-21T07:50:30.427Z,19.00
2018-10-21T07:51:31.149Z,21.00
2018-10-21T07:52:31.880Z,18.00
2018-10-21T07:53:32.610Z,19.00
2018-10-21T07:54:33.343Z,20.00
2018-10-21T07:55:34.090Z,17.00
2018-10-21T07:56:34.821Z,20.00
2018-10-21T07:57:35.550Z,20.00
2018-10-21T07:58:36.280Z,19.00
2018-10-21T07:59:37.015Z,18.00
2018-10-21T08:00:37.744Z,19.00
2018-10-21T08:01:38.474Z,17.00
2018-10-21T08:02:39.203Z,18.00
2018-10-21T08:03:39.937Z,21.00
2018-10-21T08:04:40.673Z,20.00
2018-10-21T08:05:41.419Z,18.00
2018-10-21T08:06:42.126Z,18.00
2018-10-21T08:07:42.851Z,18.00
2018-10-21T08:08:43.595Z,22.00
2018-10-21T08:09:44.312Z,17.00
2018-10-21T08:10:45.043Z,17.00
2018-10-21T08:11:45.774Z,17.00
2018-10-21T08:12:46.499Z,19.00
2018-10-21T08:13:47.228Z,17.00
2018-10-21T08:14:48.080Z,17.00
2018-10-21T08:15:48.690Z,21.00
2018-10-21T08:16:49.420Z,19.00
2018-10-21T08:17:50.153Z,17.00
2018-10-21T08:18:50.887Z,16.00
2018-10-21T08:19:51.621Z,22.00
2018-10-21T08:20:52.360Z,24.00
2018-10-21T08:21:53.082Z,20.00
2018-10-21T08:22:53.814Z,19.00
2018-10-21T08:23:54.543Z,17.00
2018-10-21T08:24:55.287Z,22.00
2018-10-21T08:25:56.033Z,18.00
2018-10-21T08:26:56.763Z,17.00
2018-10-21T08:27:57.556Z,21.00
2018-10-21T08:28:58.229Z,19.00
2018-10-21T08:29:58.955Z,20.00
2018-10-21T08:30:59.685Z,20.00
2018-10-21T08:32:00.414Z,17.00
2018-10-21T08:33:01.146Z,18.00
2018-10-21T08:34:01.905Z,21.00
2018-10-21T08:35:02.609Z,19.00
2018-10-21T08:36:03.418Z,18.00
2018-10-21T08:37:04.090Z,21.00
2018-10-21T08:38:04.822Z,21.00
2018-10-21T08:39:05.555Z,22.00
2018-10-21T08:40:06.304Z,19.00
2018-10-21T08:41:07.021Z,21.00
2018-10-21T08:42:07.753Z,18.00
2018-10-21T08:43:08.486Z,19.00
2018-10-21T08:44:09.218Z,18.00
2018-10-21T08:45:09.951Z,20.00
2018-10-21T08:46:10.732Z,18.00
2018-10-21T08:47:11.432Z,19.00
2018-10-21T08:48:12.158Z,16.00
2018-10-21T08:49:12.989Z,18.00
2018-10-21T08:50:13.628Z,19.00
2018-10-21T08:51:14.372Z,17.00
2018-10-21T08:52:15.221Z,18.00
2018-10-21T08:53:15.836Z,17.00
2018-10-21T08:54:16.570Z,17.00
2018-10-21T08:55:17.419Z,18.00
2018-10-21T08:56:18.055Z,17.00
2018-10-21T08:57:18.789Z,21.00
2018-10-21T08:58:19.524Z,19.00
2018-10-21T08:59:20.260Z,19.00
2018-10-21T09:00:20.995Z,22.00
2018-10-21T09:01:21.728Z,18.00
2018-10-21T09:02:22.462Z,19.00
2018-10-21T09:03:23.196Z,19.00
2018-10-21T09:04:23.936Z,17.00
2018-10-21T09:05:24.688Z,16.00
2018-10-21T09:06:25.424Z,18.00
2018-10-21T09:07:26.166Z,18.00
2018-10-21T09:08:26.898Z,17.00
2018-10-21T09:09:27.635Z,18.00
2018-10-21T09:10:28.437Z,19.00
2018-10-21T09:11:29.128Z,18.00
2018-10-21T09:12:29.865Z,17.00
2018-10-21T09:13:30.603Z,20.00
2018-10-21T09:14:31.343Z,17.00
2018-10-21T09:15:32.115Z,15.00
2018-10-21T09:16:32.924Z,16.00
2018-10-21T09:17:33.603Z,16.00
2018-10-21T09:18:34.345Z,19.00
2018-10-21T09:19:35.110Z,17.00
2018-10-21T09:20:35.875Z,15.00
2018-10-21T09:21:36.620Z,16.00
2018-10-21T09:22:37.361Z,18.00
2018-10-21T09:23:38.146Z,16.00
2018-10-21T09:24:38.849Z,15.00
2018-10-21T09:25:39.594Z,16.00
2018-10-21T09:26:40.346Z,14.00
2018-10-21T09:27:41.103Z,17.00
2018-10-21T09:28:41.860Z,17.00
2018-10-21T09:29:42.621Z,23.00
2018-10-21T09:30:43.392Z,14.00
2018-10-21T09:31:44.128Z,16.00
2018-10-21T09:32:44.874Z,15.00
2018-10-21T09:33:45.621Z,17.00
2018-10-21T09:34:46.363Z,15.00
2018-10-21T09:35:47.114Z,18.00
2018-10-21T09:36:47.910Z,16.00
2018-10-21T09:37:48.593Z,17.00
2018-10-21T09:38:49.336Z,17.00
2018-10-21T09:39:50.078Z,13.00
2018-10-21T09:40:50.819Z,19.00
2018-10-21T09:41:51.560Z,17.00
2018-10-21T09:42:52.301Z,16.00
2018-10-21T09:43:53.043Z,15.00
2018-10-21T09:44:53.786Z,17.00
2018-10-21T09:45:54.600Z,16.00
2018-10-21T09:46:55.296Z,16.00
2018-10-21T09:47:56.035Z,14.00
2018-10-21T09:48:56.788Z,10.00
2018-10-21T09:49:57.600Z,12.00
2018-10-21T09:50:58.262Z,15.00
2018-10-21T09:51:59.030Z,15.00
2018-10-21T09:52:59.746Z,15.00
2018-10-21T09:54:00.490Z,13.00
2018-10-21T09:55:01.266Z,12.00
2018-10-21T09:56:01.973Z,12.00
2018-10-21T09:57:02.738Z,13.00
2018-10-21T09:58:03.520Z,15.00
2018-10-21T09:59:04.221Z,14.00
2018-10-21T10:00:04.966Z,12.00
2018-10-21T10:01:05.758Z,13.00
2018-10-21T10:02:06.450Z,11.00
2018-10-21T10:03:07.193Z,13.00
2018-10-21T10:04:07.940Z,13.00
2018-10-21T10:05:08.701Z,15.00
2018-10-21T10:06:09.424Z,12.00
2018-10-21T10:07:10.213Z,15.00
2018-10-21T10:08:10.911Z,11.00
2018-10-21T10:09:11.674Z,11.00
2018-10-21T10:10:12.473Z,11.00
2018-10-21T10:11:13.161Z,10.00
2018-10-21T10:12:13.900Z,12.00
2018-10-21T10:13:14.696Z,9.00
2018-10-21T10:14:15.385Z,10.00
2018-10-21T10:15:16.128Z,10.00
2018-10-21T10:16:16.896Z,10.00
2018-10-21T10:17:17.613Z,10.00
2018-10-21T10:18:18.359Z,11.00
2018-10-21T10:19:19.167Z,7.00
2018-10-21T10:20:19.844Z,9.00
2018-10-21T10:21:20.591Z,10.00
2018-10-21T10:22:21.332Z,13.00
2018-10-21T10:23:22.144Z,8.00
2018-10-21T10:24:22.817Z,12.00
2018-10-21T10:25:23.570Z,10.00
2018-10-21T10:26:24.306Z,8.00
2018-10-21T10:27:25.050Z,9.00
2018-10-21T10:28:25.823Z,8.00
2018-10-21T10:29:26.558Z,7.00
2018-10-21T10:30:27.336Z,8.00
2018-10-21T10:31:28.086Z,9.00
2018-10-21T10:32:28.833Z,6.00
2018-10-21T10:33:29.573Z,8.00
2018-10-21T10:34:30.341Z,10.00
2018-10-21T10:35:31.084Z,7.00
2018-10-21T10:36:31.827Z,9.00
2018-10-21T10:37:32.567Z,7.00
2018-10-21T10:38:33.308Z,9.00
2018-10-21T10:39:34.051Z,9.00
2018-10-21T10:40:34.792Z,7.00
2018-10-21T10:41:35.590Z,10.00
2018-10-21T10:42:36.274Z,7.00
2018-10-21T10:43:37.018Z,9.00
2018-10-21T10:44:37.762Z,10.00
2018-10-21T10:45:38.506Z,9.00
2018-10-21T10:46:39.257Z,8.00
2018-10-21T10:47:39.991Z,9.00
2018-10-21T10:48:40.742Z,9.00
2018-10-21T10:49:41.484Z,8.00
2018-10-21T10:50:42.219Z,9.00
2018-10-21T10:51:42.961Z,8.00
2018-10-21T10:52:43.714Z,8.00
2018-10-21T10:53:44.468Z,9.00
2018-10-21T10:54:45.210Z,8.00
2018-10-21T10:55:45.955Z,8.00
2018-10-21T10:56:46.697Z,8.00
2018-10-21T10:57:47.441Z,8.00
2018-10-21T10:58:48.183Z,9.00
2018-10-21T10:59:48.968Z,7.00
2018-10-21T11:00:49.665Z,8.00
2018-10-21T11:01:50.406Z,6.00
2018-10-21T11:02:51.149Z,7.00
2018-10-21T11:03:51.890Z,8.00
2018-10-21T11:04:52.631Z,6.00
2018-10-21T11:05:53.377Z,5.00
2018-10-21T11:06:54.133Z,8.00
2018-10-21T11:07:54.878Z,6.00
2018-10-21T11:08:55.620Z,9.00
2018-10-21T11:09:56.390Z,8.00
2018-10-21T11:10:57.103Z,8.00
2018-10-21T11:11:57.847Z,8.00
2018-10-21T11:12:58.605Z,10.00
2018-10-21T11:13:59.332Z,9.00
2018-10-21T11:15:00.091Z,9.00
2018-10-21T11:16:00.865Z,8.00
2018-10-21T11:17:01.580Z,9.00
2018-10-21T11:18:02.322Z,8.00
2018-10-21T11:19:03.118Z,8.00
2018-10-21T11:20:03.813Z,8.00
2018-10-21T11:21:04.560Z,9.00
2018-10-21T11:22:05.355Z,7.00
2018-10-21T11:23:06.039Z,7.00
2018-10-21T11:24:06.781Z,10.00
2018-10-21T11:25:07.557Z,7.00
2018-10-21T11:26:08.253Z,8.00
2018-10-21T11:27:08.991Z,11.00
2018-10-21T11:28:09.764Z,8.00
2018-10-21T11:29:10.478Z,9.00
2018-10-21T11:30:11.215Z,8.00
2018-10-21T11:31:12.004Z,9.00
2018-10-21T11:32:12.696Z,8.00
2018-10-21T11:33:13.447Z,9.00
2018-10-21T11:34:14.262Z,6.00
2018-10-21T11:35:14.934Z,7.00
2018-10-21T11:36:15.669Z,8.00
2018-10-21T11:37:16.482Z,8.00
2018-10-21T11:38:17.141Z,9.00
2018-10-21T11:39:17.876Z,9.00
2018-10-21T11:40:18.664Z,11.00
2018-10-21T11:41:19.347Z,11.00
2018-10-21T11:42:20.090Z,9.00
2018-10-21T11:43:20.845Z,10.00
2018-10-21T11:44:21.581Z,9.00
2018-10-21T11:45:22.320Z,9.00
2018-10-21T11:46:23.082Z,7.00
2018-10-21T11:47:23.806Z,8.00
2018-10-21T11:48:24.559Z,6.00
2018-10-21T11:49:25.297Z,6.00
2018-10-21T11:50:26.035Z,8.00
2018-10-21T11:51:26.797Z,9.00
2018-10-21T11:52:27.561Z,9.00
2018-10-21T11:53:28.291Z,8.00
2018-10-21T11:54:29.057Z,10.00
2018-10-21T11:55:29.794Z,8.00
2018-10-21T11:56:30.524Z,8.00
2018-10-21T11:57:31.262Z,10.00
2018-10-21T11:58:32.023Z,8.00
2018-10-21T11:59:32.759Z,8.00
2018-10-21T12:00:33.501Z,8.00
2018-10-21T12:01:34.232Z,9.00
2018-10-21T12:02:34.992Z,9.00
2018-10-21T12:03:35.728Z,8.00
2018-10-21T12:04:36.474Z,9.00
2018-10-21T12:05:37.204Z,9.00
2018-10-21T12:06:37.942Z,9.00
2018-10-21T12:07:38.702Z,8.00
2018-10-21T12:08:39.436Z,6.00
2018-10-21T12:09:40.172Z,9.00
2018-10-21T12:10:40.933Z,8.00
2018-10-21T12:11:41.670Z,8.00
2018-10-21T12:12:42.405Z,8.00
2018-10-21T12:13:43.142Z,8.00
2018-10-21T12:14:43.883Z,9.00
2018-10-21T12:15:44.641Z,8.00
2018-10-21T12:16:45.380Z,8.00
2018-10-21T12:17:46.119Z,9.00
2018-10-21T12:18:46.932Z,7.00
2018-10-21T12:19:47.632Z,7.00
2018-10-21T12:20:48.329Z,8.00
2018-10-21T12:21:49.087Z,6.00
2018-10-21T12:22:49.849Z,6.00
2018-10-21T12:23:50.606Z,7.00
2018-10-21T12:24:51.639Z,7.00
2018-10-21T12:25:52.099Z,7.00
2018-10-21T12:26:52.833Z,7.00
2018-10-21T12:27:53.602Z,6.00
2018-10-21T12:28:54.336Z,7.00
2018-10-21T12:29:55.040Z,8.00
2018-10-21T12:30:55.800Z,6.00
2018-10-21T12:31:56.540Z,6.00
2018-10-21T12:32:57.292Z,6.00
2018-10-21T12:33:58.088Z,8.00
2018-10-21T12:34:58.778Z,7.00
2018-10-21T12:35:59.500Z,7.00
2018-10-21T12:37:00.278Z,6.00
2018-10-21T12:38:00.967Z,8.00
2018-10-21T12:39:01.698Z,7.00
2018-10-21T12:40:02.494Z,7.00
2018-10-21T12:41:03.217Z,9.00
2018-10-21T12:42:03.898Z,6.00
2018-10-21T12:43:04.689Z,6.00
2018-10-21T12:44:05.374Z,7.00
2018-10-21T12:45:06.129Z,7.00
2018-10-21T12:46:06.931Z,6.00
2018-10-21T12:47:07.672Z,6.00
2018-10-21T12:48:08.352Z,7.00
2018-10-21T12:49:09.116Z,7.00
2018-10-21T12:50:09.820Z,6.00
2018-10-21T12:51:10.553Z,6.00
2018-10-21T12:52:11.348Z,7.00
2018-10-21T12:53:12.062Z,5.00
2018-10-21T12:54:12.809Z,5.00
2018-10-21T12:55:13.574Z,8.00
2018-10-21T12:56:14.216Z,7.00
2018-10-21T12:57:14.980Z,7.00
2018-10-21T12:58:15.812Z,7.00
2018-10-21T12:59:16.434Z,7.00
2018-10-21T13:00:17.167Z,6.00
2018-10-21T13:01:17.951Z,5.00
2018-10-21T13:02:18.702Z,6.00
2018-10-21T13:03:19.379Z,6.00
2018-10-21T13:04:20.268Z,7.00
2018-10-21T13:05:20.843Z,6.00
2018-10-21T13:06:21.574Z,7.00
2018-10-21T13:07:22.314Z,8.00